Archival Weather

Chicago O'Hare International

Chicago, Illinois (KORD)

Report from: Thursday, November 24, 2022 11:43 AM CST
Current time: Sunday, December 4, 2022 5:05 AM CST

Current weather
Weather history
Weather forecast

Temperature10.6°C (51.1°F)
Dew point0.6°C (33.1°F)
Winds 6 kts (3.1 m/s, 6.9 mph) Southwest (220°)
Visibility10 mi. (16.1 km)
Clouds Ceiling: Broken clouds 1,700 ft. (518 m)
Broken clouds 6,500 ft. (1,981 m)
Broken clouds 9,500 ft. (2,896 m)
Broken clouds 25,000 ft. (7,620 m)
Altimeter30.08 in.Hg (1019 mB)
Relative humidity50 %
Density altitude-609 ft. (-186 m)
Remarks System requires maintenance
Automated weather observing station with precipitation discriminator
Flight conditions Marginal Visual Meteorological Conditions
Raw dataKORD 241743Z 22006KT 10SM BKN017 BKN065 BKN095 BKN250 11/01 A3008 RMK AO2 T01060006 $
An error has occurred. This application may no longer respond until reloaded. Reload 🗙